createdAt,value
2022-07-29T00:02:27.732Z,15.48
2022-07-29T00:04:54.950Z,15.48
2022-07-29T00:07:21.915Z,15.48
2022-07-29T00:09:51.220Z,15.49
2022-07-29T00:12:25.479Z,15.50
2022-07-29T00:14:54.882Z,15.50
2022-07-29T00:17:22.397Z,15.48
2022-07-29T00:19:49.271Z,15.47
2022-07-29T00:22:16.276Z,15.46
2022-07-29T00:24:43.212Z,15.45
2022-07-29T00:27:10.006Z,15.42
2022-07-29T00:29:36.904Z,15.39
2022-07-29T00:32:03.966Z,15.37
2022-07-29T00:34:50.318Z,15.35
2022-07-29T00:37:17.206Z,15.34
2022-07-29T00:39:44.230Z,15.33
2022-07-29T00:42:11.510Z,15.32
2022-07-29T00:44:41.952Z,15.30
2022-07-29T00:47:10.700Z,15.29
2022-07-29T00:49:39.763Z,15.28
2022-07-29T00:52:07.783Z,15.27
2022-07-29T00:54:37.445Z,15.26
2022-07-29T00:57:13.354Z,15.25
2022-07-29T00:59:40.338Z,15.22
2022-07-29T01:02:07.276Z,15.19
2022-07-29T01:04:34.450Z,15.17
2022-07-29T01:07:02.520Z,15.13
2022-07-29T01:09:45.403Z,15.11
2022-07-29T01:12:20.720Z,15.07
2022-07-29T01:14:50.743Z,15.04
2022-07-29T01:17:21.344Z,15.02
2022-07-29T01:20:09.105Z,15.00
2022-07-29T01:22:43.130Z,14.97
2022-07-29T01:25:16.109Z,14.96
2022-07-29T01:28:11.834Z,14.96
2022-07-29T01:30:42.666Z,14.95
2022-07-29T01:33:34.277Z,14.94
2022-07-29T01:36:10.211Z,14.95
2022-07-29T01:38:40.153Z,14.95
2022-07-29T01:41:11.470Z,14.95
2022-07-29T01:43:52.448Z,14.94
2022-07-29T01:46:25.993Z,14.95
2022-07-29T01:49:02.939Z,14.95
2022-07-29T01:51:41.243Z,14.92
2022-07-29T01:54:11.548Z,14.92
2022-07-29T01:56:39.561Z,14.90
2022-07-29T01:59:08.909Z,14.90
2022-07-29T02:01:39.879Z,14.88
2022-07-29T02:04:10.645Z,14.86
2022-07-29T02:06:41.170Z,14.85
2022-07-29T02:09:11.073Z,14.84
2022-07-29T02:11:39.436Z,14.82
2022-07-29T02:14:08.716Z,14.81
2022-07-29T02:16:38.809Z,14.79
2022-07-29T02:19:07.730Z,14.78
2022-07-29T02:21:36.493Z,14.76
2022-07-29T02:24:05.491Z,14.74
2022-07-29T02:26:34.341Z,14.73
2022-07-29T02:29:02.604Z,14.71
2022-07-29T02:31:34.386Z,14.69
2022-07-29T02:34:03.929Z,14.67
2022-07-29T02:36:32.870Z,14.64
2022-07-29T02:39:01.212Z,14.63
2022-07-29T02:41:36.703Z,14.61
2022-07-29T02:44:10.683Z,14.59
2022-07-29T02:46:42.279Z,14.57
2022-07-29T02:49:30.164Z,14.57
2022-07-29T02:52:03.838Z,14.56
2022-07-29T02:54:45.057Z,14.54
2022-07-29T02:57:20.990Z,14.51
2022-07-29T02:59:50.293Z,14.49
2022-07-29T03:02:18.064Z,14.46
2022-07-29T03:04:46.608Z,14.44
2022-07-29T03:07:16.163Z,14.42
2022-07-29T03:09:43.533Z,14.40
2022-07-29T03:12:11.566Z,14.38
2022-07-29T03:14:38.986Z,14.35
2022-07-29T03:17:06.298Z,14.32
2022-07-29T03:19:34.737Z,14.30
2022-07-29T03:22:01.907Z,14.29
2022-07-29T03:24:34.631Z,14.28
2022-07-29T03:27:02.712Z,14.27
2022-07-29T03:29:33.803Z,14.26
2022-07-29T03:32:04.308Z,14.25
2022-07-29T03:34:34.308Z,14.24
2022-07-29T03:37:01.195Z,14.22
2022-07-29T03:39:31.829Z,14.21
2022-07-29T03:42:00.828Z,14.20
2022-07-29T03:44:29.685Z,14.21
2022-07-29T03:47:01.555Z,14.23
2022-07-29T03:49:28.902Z,14.24
2022-07-29T03:51:56.001Z,14.26
2022-07-29T03:54:23.237Z,14.29
2022-07-29T03:56:53.052Z,14.31
2022-07-29T03:59:22.003Z,14.35
2022-07-29T04:01:50.491Z,14.38
2022-07-29T04:04:18.012Z,14.40
2022-07-29T04:06:48.358Z,14.42
2022-07-29T04:09:15.329Z,14.42
2022-07-29T04:12:02.891Z,14.43
2022-07-29T04:14:31.426Z,14.44
2022-07-29T04:16:58.287Z,14.46
2022-07-29T04:19:24.982Z,14.48
2022-07-29T04:21:51.783Z,14.48
2022-07-29T04:24:19.108Z,14.50
2022-07-29T04:26:46.949Z,14.50
2022-07-29T04:29:14.919Z,14.52
2022-07-29T04:31:42.508Z,14.55
2022-07-29T04:34:10.108Z,14.60
2022-07-29T04:36:37.377Z,14.65
2022-07-29T04:39:04.394Z,14.72
2022-07-29T04:41:33.254Z,14.80
2022-07-29T04:44:05.327Z,14.87
2022-07-29T04:46:32.553Z,14.95
2022-07-29T04:48:59.383Z,14.99
2022-07-29T04:51:26.310Z,14.98
2022-07-29T04:53:53.024Z,14.99
2022-07-29T04:56:19.823Z,15.06
2022-07-29T04:58:46.604Z,15.16
2022-07-29T05:01:13.865Z,15.31
2022-07-29T05:03:40.916Z,15.48
2022-07-29T05:06:07.699Z,15.63
2022-07-29T05:08:34.491Z,15.79
2022-07-29T05:11:12.174Z,15.94
2022-07-29T05:13:45.218Z,16.08
2022-07-29T05:16:14.681Z,16.22
2022-07-29T05:18:42.511Z,16.34
2022-07-29T05:21:09.387Z,16.46
2022-07-29T05:23:36.291Z,16.64
2022-07-29T05:26:03.106Z,16.83
2022-07-29T05:28:34.002Z,16.93
2022-07-29T05:31:01.499Z,17.04
2022-07-29T05:33:35.633Z,17.19
2022-07-29T05:36:08.072Z,17.33
2022-07-29T05:38:35.953Z,17.47
2022-07-29T05:41:03.242Z,17.61
2022-07-29T05:43:30.642Z,17.73
2022-07-29T05:45:57.826Z,17.86
2022-07-29T05:48:25.209Z,18.00
2022-07-29T05:50:52.240Z,18.13
2022-07-29T05:53:20.526Z,18.24
2022-07-29T05:55:48.974Z,18.39
2022-07-29T05:58:16.341Z,18.49
2022-07-29T06:00:43.105Z,18.63
2022-07-29T06:03:09.917Z,18.77
2022-07-29T06:05:36.679Z,18.89
2022-07-29T06:08:06.257Z,19.04
2022-07-29T06:10:33.678Z,19.12
2022-07-29T06:13:00.599Z,19.25
2022-07-29T06:15:28.627Z,19.42
2022-07-29T06:17:59.999Z,19.64
2022-07-29T06:20:32.136Z,19.84
2022-07-29T06:23:00.003Z,19.97
2022-07-29T06:25:29.665Z,20.02
2022-07-29T06:27:57.064Z,19.95
2022-07-29T06:30:23.995Z,19.85
2022-07-29T06:32:50.841Z,19.78
2022-07-29T06:35:41.306Z,19.72
2022-07-29T06:38:06.379Z,19.68
2022-07-29T06:41:02.557Z,19.66
2022-07-29T06:43:50.604Z,19.79
2022-07-29T06:46:21.364Z,19.92
2022-07-29T06:48:48.850Z,19.99
2022-07-29T06:51:16.878Z,20.07
2022-07-29T06:54:00.141Z,20.25
2022-07-29T06:56:38.554Z,20.50
2022-07-29T06:59:12.566Z,20.63
2022-07-29T07:01:42.635Z,20.65
2022-07-29T07:04:10.262Z,20.72
2022-07-29T07:06:38.170Z,20.80
2022-07-29T07:09:05.480Z,20.74
2022-07-29T07:11:32.301Z,20.65
2022-07-29T07:14:03.363Z,20.59
2022-07-29T07:16:36.901Z,20.71
2022-07-29T07:19:04.002Z,20.90
2022-07-29T07:21:31.550Z,21.04
2022-07-29T07:23:59.653Z,21.21
2022-07-29T07:26:28.248Z,21.34
2022-07-29T07:28:55.122Z,21.51
2022-07-29T07:31:22.174Z,21.69
2022-07-29T07:33:49.013Z,21.87
2022-07-29T07:36:15.765Z,21.97
2022-07-29T07:38:42.500Z,22.07
2022-07-29T07:41:09.281Z,22.13
2022-07-29T07:43:36.042Z,22.16
2022-07-29T07:46:03.055Z,22.20
2022-07-29T07:48:29.863Z,22.29
2022-07-29T07:50:56.731Z,22.41
2022-07-29T07:53:23.669Z,22.49
2022-07-29T07:58:38.941Z,22.57
2022-07-29T08:01:07.872Z,22.68
2022-07-29T08:03:35.584Z,22.73
2022-07-29T08:06:04.216Z,22.77
2022-07-29T08:08:31.277Z,22.86
2022-07-29T08:10:59.276Z,22.91
2022-07-29T08:13:30.843Z,22.95
2022-07-29T08:15:58.583Z,22.97
2022-07-29T08:18:29.985Z,23.07
2022-07-29T08:20:57.534Z,23.16
2022-07-29T08:23:25.302Z,23.18
2022-07-29T08:25:52.509Z,23.17
2022-07-29T08:28:22.161Z,23.22
2022-07-29T08:30:53.258Z,23.20
2022-07-29T08:33:20.119Z,23.28
2022-07-29T08:35:47.049Z,23.41
2022-07-29T08:38:14.004Z,23.40
2022-07-29T08:40:40.848Z,23.43
2022-07-29T08:43:09.001Z,23.53
2022-07-29T08:45:48.159Z,23.64
2022-07-29T08:48:18.891Z,23.62
2022-07-29T08:50:47.035Z,23.65
2022-07-29T08:53:16.459Z,23.71
2022-07-29T08:55:44.718Z,23.74
2022-07-29T08:58:13.261Z,23.79
2022-07-29T09:00:50.305Z,23.89
2022-07-29T09:03:19.929Z,23.94
2022-07-29T09:05:48.203Z,23.90
2022-07-29T09:08:16.748Z,23.86
2022-07-29T09:10:44.927Z,23.75
2022-07-29T09:13:12.024Z,23.81
2022-07-29T09:15:39.081Z,23.99
2022-07-29T09:18:06.085Z,24.12
2022-07-29T09:20:51.636Z,24.15
2022-07-29T09:23:23.071Z,24.07
2022-07-29T09:25:51.478Z,24.05
2022-07-29T09:28:20.106Z,24.14
2022-07-29T09:30:59.478Z,24.22
2022-07-29T09:33:35.152Z,24.22
2022-07-29T09:36:09.862Z,24.25
2022-07-29T09:38:40.034Z,24.28
2022-07-29T09:41:09.048Z,24.30
2022-07-29T09:43:36.356Z,24.30
2022-07-29T09:46:13.930Z,24.34
2022-07-29T09:48:40.917Z,24.47
2022-07-29T09:51:26.724Z,24.54
2022-07-29T09:53:55.296Z,24.61
2022-07-29T09:56:42.106Z,24.58
2022-07-29T09:59:09.685Z,24.48
2022-07-29T10:01:36.530Z,24.44
2022-07-29T10:04:03.732Z,24.49
2022-07-29T10:06:30.487Z,24.54
2022-07-29T10:09:17.756Z,24.45
2022-07-29T10:12:14.329Z,24.33
2022-07-29T10:14:42.926Z,24.30
2022-07-29T10:17:11.142Z,24.38
2022-07-29T10:19:39.564Z,24.44
2022-07-29T10:22:09.080Z,24.42
2022-07-29T10:24:37.846Z,24.50
2022-07-29T10:27:07.678Z,24.70
2022-07-29T10:29:35.040Z,24.86
2022-07-29T10:32:05.050Z,24.75
2022-07-29T10:34:59.698Z,24.56
2022-07-29T10:37:45.921Z,24.40
2022-07-29T10:40:34.731Z,24.55
2022-07-29T10:43:17.981Z,24.62
2022-07-29T10:45:48.745Z,24.69
2022-07-29T10:48:17.130Z,24.83
2022-07-29T10:50:56.093Z,24.97
2022-07-29T10:53:24.208Z,25.02
2022-07-29T10:55:52.845Z,24.91
2022-07-29T10:58:24.510Z,24.85
2022-07-29T11:00:54.854Z,24.88
2022-07-29T11:03:49.707Z,24.97
2022-07-29T11:06:26.654Z,25.12
2022-07-29T11:09:25.733Z,25.20
2022-07-29T11:12:03.138Z,25.16
2022-07-29T11:14:56.606Z,25.04
2022-07-29T11:17:23.548Z,24.92
2022-07-29T11:19:52.418Z,24.85
2022-07-29T11:22:37.717Z,24.77
2022-07-29T11:25:18.791Z,24.62
2022-07-29T11:27:46.360Z,24.55
2022-07-29T11:30:15.102Z,24.45
2022-07-29T11:32:44.944Z,24.32
2022-07-29T11:35:38.123Z,24.35
2022-07-29T11:38:22.799Z,24.52
2022-07-29T11:41:20.847Z,24.74
2022-07-29T11:43:56.224Z,24.95
2022-07-29T11:46:49.130Z,25.11
2022-07-29T11:49:22.215Z,25.32
2022-07-29T11:52:03.918Z,25.48
2022-07-29T11:57:36.582Z,25.41
2022-07-29T12:00:09.695Z,25.35
2022-07-29T12:02:48.187Z,25.24
2022-07-29T12:05:24.029Z,25.17
2022-07-29T12:08:12.485Z,25.20
2022-07-29T12:10:42.970Z,25.27
2022-07-29T12:13:11.282Z,25.27
2022-07-29T12:15:47.216Z,25.27
2022-07-29T12:18:18.214Z,25.29
2022-07-29T12:20:47.161Z,25.30
2022-07-29T12:23:16.186Z,25.29
2022-07-29T12:25:45.107Z,25.27
2022-07-29T12:28:27.660Z,25.15
2022-07-29T12:30:55.211Z,24.98
2022-07-29T12:33:24.536Z,24.88
2022-07-29T12:36:06.927Z,24.82
2022-07-29T12:38:36.279Z,24.76
2022-07-29T12:41:04.423Z,24.78
2022-07-29T12:43:32.020Z,24.82
2022-07-29T12:46:15.730Z,24.90
2022-07-29T12:48:44.469Z,25.02
2022-07-29T12:51:14.736Z,25.16
2022-07-29T12:53:41.551Z,25.18
2022-07-29T12:56:40.487Z,25.16
2022-07-29T12:59:15.001Z,25.10
2022-07-29T13:01:42.161Z,25.04
2022-07-29T13:04:08.989Z,24.94
2022-07-29T13:06:42.137Z,24.86
2022-07-29T13:09:14.950Z,24.78
2022-07-29T13:11:58.719Z,24.73
2022-07-29T13:14:32.108Z,24.74
2022-07-29T13:17:08.226Z,24.86
2022-07-29T13:19:45.742Z,25.01
2022-07-29T13:22:23.337Z,25.18
2022-07-29T13:24:56.372Z,25.25
2022-07-29T13:27:27.921Z,25.31
2022-07-29T13:30:00.184Z,25.35
2022-07-29T13:32:29.262Z,25.36
2022-07-29T13:34:57.895Z,25.37
2022-07-29T13:37:25.326Z,25.36
2022-07-29T13:39:53.428Z,25.39
2022-07-29T13:42:21.584Z,25.43
2022-07-29T13:44:52.297Z,25.44
2022-07-29T13:47:20.899Z,25.43
2022-07-29T13:49:48.582Z,25.39
2022-07-29T13:52:16.161Z,25.33
2022-07-29T13:54:43.841Z,25.28
2022-07-29T13:57:12.225Z,25.32
2022-07-29T13:59:42.847Z,25.37
2022-07-29T14:02:10.710Z,25.45
2022-07-29T14:04:39.639Z,25.53
2022-07-29T14:07:07.443Z,25.55
2022-07-29T14:09:41.025Z,25.53
2022-07-29T14:12:09.075Z,25.48
2022-07-29T14:14:36.934Z,25.50
2022-07-29T14:17:06.598Z,25.51
2022-07-29T14:19:36.015Z,25.50
2022-07-29T14:22:04.499Z,25.47
2022-07-29T14:24:32.337Z,25.46
2022-07-29T14:26:59.779Z,25.42
2022-07-29T14:29:37.765Z,25.41
2022-07-29T14:32:07.541Z,25.42
2022-07-29T14:34:36.033Z,25.42
2022-07-29T14:37:05.644Z,25.42
2022-07-29T14:39:32.893Z,25.44
2022-07-29T14:42:00.201Z,25.46
2022-07-29T14:44:31.467Z,25.47
2022-07-29T14:47:00.047Z,25.47
2022-07-29T14:49:27.842Z,25.48
2022-07-29T14:51:54.765Z,25.45
2022-07-29T14:54:21.709Z,25.42
2022-07-29T14:56:49.768Z,25.39
2022-07-29T14:59:16.972Z,25.32
2022-07-29T15:01:43.830Z,25.30
2022-07-29T15:04:10.903Z,25.27
2022-07-29T15:06:38.337Z,25.26
2022-07-29T15:09:06.363Z,25.25
2022-07-29T15:11:38.431Z,25.25
2022-07-29T15:14:06.501Z,25.22
2022-07-29T15:16:35.667Z,25.18
2022-07-29T15:19:02.841Z,25.16
2022-07-29T15:21:29.918Z,25.19
2022-07-29T15:23:56.795Z,25.17
2022-07-29T15:26:23.720Z,25.16
2022-07-29T15:28:50.413Z,25.14
2022-07-29T15:31:19.187Z,25.09
2022-07-29T15:33:45.995Z,25.04
2022-07-29T15:36:25.465Z,24.96
2022-07-29T15:39:01.816Z,24.89
2022-07-29T15:41:28.696Z,24.86
2022-07-29T15:43:55.551Z,24.81
2022-07-29T15:46:40.951Z,24.78
2022-07-29T15:49:08.487Z,24.73
2022-07-29T15:51:35.365Z,24.69
2022-07-29T15:54:05.504Z,24.65
2022-07-29T15:56:32.367Z,24.61
2022-07-29T15:58:59.719Z,24.56
2022-07-29T16:01:28.011Z,24.55
2022-07-29T16:03:59.253Z,24.52
2022-07-29T16:06:26.117Z,24.49
2022-07-29T16:08:55.357Z,24.46
2022-07-29T16:11:22.208Z,24.41
2022-07-29T16:13:49.047Z,24.34
2022-07-29T16:16:18.037Z,24.28
2022-07-29T16:18:45.401Z,24.23
2022-07-29T16:21:12.532Z,24.17
2022-07-29T16:23:39.848Z,24.13
2022-07-29T16:26:07.253Z,24.09
2022-07-29T16:28:34.670Z,24.03
2022-07-29T16:31:01.733Z,24.00
2022-07-29T16:33:28.665Z,23.97
2022-07-29T16:36:18.457Z,23.93
2022-07-29T16:38:47.162Z,23.84
2022-07-29T16:41:15.109Z,23.66
2022-07-29T16:43:42.060Z,23.37
2022-07-29T16:46:14.002Z,22.98
2022-07-29T16:48:46.123Z,22.41
2022-07-29T16:51:14.428Z,21.90
2022-07-29T16:53:42.009Z,21.50
2022-07-29T16:56:12.885Z,21.22
2022-07-29T16:58:43.441Z,20.97
2022-07-29T17:01:11.676Z,20.74
2022-07-29T17:04:01.037Z,20.53
2022-07-29T17:06:29.569Z,20.38
2022-07-29T17:08:56.699Z,20.27
2022-07-29T17:11:51.833Z,20.21
2022-07-29T17:14:10.573Z,20.14
2022-07-29T17:16:37.984Z,20.05
2022-07-29T17:19:04.925Z,20.00
2022-07-29T17:21:31.651Z,19.96
2022-07-29T17:23:59.702Z,19.90
2022-07-29T17:26:27.150Z,19.83
2022-07-29T17:28:55.492Z,19.79
2022-07-29T17:31:23.421Z,19.74
2022-07-29T17:33:50.415Z,19.67
2022-07-29T17:36:23.445Z,19.62
2022-07-29T17:38:52.576Z,19.58
2022-07-29T17:41:21.690Z,19.58
2022-07-29T17:43:49.486Z,19.57
2022-07-29T17:46:17.518Z,19.55
2022-07-29T17:48:44.378Z,19.52
2022-07-29T17:51:12.002Z,19.52
2022-07-29T17:53:39.270Z,19.48
2022-07-29T17:56:06.670Z,19.44
2022-07-29T17:58:34.198Z,19.40
2022-07-29T18:01:01.074Z,19.37
2022-07-29T18:03:27.897Z,19.34
2022-07-29T18:05:55.338Z,19.32
2022-07-29T18:08:22.228Z,19.29
2022-07-29T18:10:49.688Z,19.21
2022-07-29T18:13:17.447Z,19.14
2022-07-29T18:15:45.845Z,19.10
2022-07-29T18:18:14.119Z,19.03
2022-07-29T18:20:42.300Z,18.97
2022-07-29T18:23:09.557Z,18.93
2022-07-29T18:25:37.290Z,18.89
2022-07-29T18:28:05.402Z,18.82
2022-07-29T18:30:39.386Z,18.76
2022-07-29T18:33:23.415Z,18.70
2022-07-29T18:35:52.225Z,18.64
2022-07-29T18:38:21.285Z,18.59
2022-07-29T18:40:48.240Z,18.53
2022-07-29T18:43:14.998Z,18.47
2022-07-29T18:45:42.568Z,18.42
2022-07-29T18:48:12.884Z,18.40
2022-07-29T18:50:40.838Z,18.38
2022-07-29T18:53:07.944Z,18.37
2022-07-29T18:55:34.890Z,18.33
2022-07-29T18:58:01.652Z,18.32
2022-07-29T19:00:28.732Z,18.31
2022-07-29T19:02:56.724Z,18.29
2022-07-29T19:05:24.088Z,18.27
2022-07-29T19:07:51.074Z,18.28
2022-07-29T19:10:18.348Z,18.27
2022-07-29T19:12:45.609Z,18.26
2022-07-29T19:15:12.480Z,18.24
2022-07-29T19:17:48.071Z,18.23
2022-07-29T19:20:15.202Z,18.22
2022-07-29T19:22:42.132Z,18.21
2022-07-29T19:25:09.447Z,18.19
2022-07-29T19:27:36.313Z,18.18
2022-07-29T19:30:06.010Z,18.16
2022-07-29T19:32:33.247Z,18.13
2022-07-29T19:35:18.677Z,18.10
2022-07-29T19:37:45.484Z,18.03
2022-07-29T19:40:12.642Z,17.96
2022-07-29T19:42:39.420Z,17.91
2022-07-29T19:45:06.621Z,17.86
2022-07-29T19:47:33.438Z,17.83
2022-07-29T19:50:00.337Z,17.82
2022-07-29T19:52:27.881Z,17.79
2022-07-29T19:54:54.769Z,17.76
2022-07-29T19:57:22.232Z,17.71
2022-07-29T19:59:51.009Z,17.68
2022-07-29T20:02:17.902Z,17.66
2022-07-29T20:04:45.329Z,17.62
2022-07-29T20:07:12.982Z,17.60
2022-07-29T20:09:40.631Z,17.57
2022-07-29T20:12:11.111Z,17.56
2022-07-29T20:14:38.026Z,17.56
2022-07-29T20:17:05.094Z,17.54
2022-07-29T20:19:32.651Z,17.53
2022-07-29T20:22:00.182Z,17.50
2022-07-29T20:24:26.969Z,17.47
2022-07-29T20:26:53.815Z,17.46
2022-07-29T20:29:20.847Z,17.45
2022-07-29T20:31:52.894Z,17.44
2022-07-29T20:34:23.226Z,17.44
2022-07-29T20:36:50.061Z,17.44
2022-07-29T20:39:16.831Z,17.43
2022-07-29T20:41:43.904Z,17.41
2022-07-29T20:44:10.841Z,17.37
2022-07-29T20:46:38.701Z,17.35
2022-07-29T20:49:05.543Z,17.33
2022-07-29T20:51:32.835Z,17.32
2022-07-29T20:54:11.241Z,17.32
2022-07-29T20:56:38.591Z,17.31
2022-07-29T20:59:05.315Z,17.28
2022-07-29T21:01:32.167Z,17.26
2022-07-29T21:04:00.679Z,17.25
2022-07-29T21:06:27.475Z,17.23
2022-07-29T21:08:57.333Z,17.21
2022-07-29T21:11:43.238Z,17.17
2022-07-29T21:14:25.191Z,17.15
2022-07-29T21:16:51.930Z,17.13
2022-07-29T21:19:18.888Z,17.12
2022-07-29T21:21:45.958Z,17.11
2022-07-29T21:24:12.788Z,17.09
2022-07-29T21:26:39.629Z,17.07
2022-07-29T21:29:06.441Z,17.06
2022-07-29T21:31:33.361Z,17.04
2022-07-29T21:34:00.519Z,17.02
2022-07-29T21:36:47.609Z,17.01
2022-07-29T21:39:14.008Z,17.00
2022-07-29T21:41:40.699Z,16.98
2022-07-29T21:44:07.506Z,16.95
2022-07-29T21:46:36.045Z,16.94
2022-07-29T21:49:03.077Z,16.93
2022-07-29T21:51:29.967Z,16.90
2022-07-29T21:53:56.799Z,16.87
2022-07-29T21:56:26.342Z,16.84
2022-07-29T21:58:55.661Z,16.82
2022-07-29T22:01:23.450Z,16.82
2022-07-29T22:03:50.212Z,16.83
2022-07-29T22:06:18.184Z,16.83
2022-07-29T22:08:45.541Z,16.84
2022-07-29T22:11:12.767Z,16.83
2022-07-29T22:13:39.938Z,16.83
2022-07-29T22:16:08.901Z,16.83
2022-07-29T22:18:35.630Z,16.84
2022-07-29T22:21:02.396Z,16.84
2022-07-29T22:23:29.212Z,16.86
2022-07-29T22:25:55.941Z,16.88
2022-07-29T22:28:22.651Z,16.88
2022-07-29T22:30:49.524Z,16.89
2022-07-29T22:33:17.686Z,16.89
2022-07-29T22:35:48.615Z,16.88
2022-07-29T22:38:18.587Z,16.89
2022-07-29T22:40:46.486Z,16.88
2022-07-29T22:43:13.323Z,16.89
2022-07-29T22:45:40.788Z,16.88
2022-07-29T22:48:07.537Z,16.89
2022-07-29T22:50:34.289Z,16.89
2022-07-29T22:53:01.259Z,16.90
2022-07-29T22:55:27.981Z,16.91
2022-07-29T22:57:54.718Z,16.92
2022-07-29T23:00:21.524Z,16.92
2022-07-29T23:02:48.561Z,16.90
2022-07-29T23:05:15.954Z,16.89
2022-07-29T23:07:42.858Z,16.87
2022-07-29T23:10:09.938Z,16.84
2022-07-29T23:12:36.760Z,16.81
2022-07-29T23:15:05.266Z,16.78
2022-07-29T23:17:32.401Z,16.76
2022-07-29T23:20:06.672Z,16.73
2022-07-29T23:22:33.617Z,16.71
2022-07-29T23:25:00.339Z,16.69
2022-07-29T23:27:27.045Z,16.69
2022-07-29T23:29:53.777Z,16.67
2022-07-29T23:32:20.485Z,16.65
2022-07-29T23:34:47.173Z,16.64
2022-07-29T23:37:14.040Z,16.63
2022-07-29T23:39:40.724Z,16.62
2022-07-29T23:42:07.575Z,16.61
2022-07-29T23:44:34.490Z,16.59
2022-07-29T23:47:01.423Z,16.59
2022-07-29T23:49:28.473Z,16.60
2022-07-29T23:51:56.564Z,16.59
2022-07-29T23:54:23.356Z,16.58
2022-07-29T23:56:50.101Z,16.58
2022-07-29T23:59:16.776Z,16.56
